sensor_id;sensor_type;location;lat;lon;timestamp;pressure;altitude;pressure_sealevel;temperature;humidity
31911;BME280;18457;52.432;16.914;2023-05-11T00:02:23;100615.35;;;14.09;48.88
31911;BME280;18457;52.432;16.914;2023-05-11T00:04:55;100623.98;;;14.07;48.98
31911;BME280;18457;52.432;16.914;2023-05-11T00:07:27;100622.64;;;14.03;49.26
31911;BME280;18457;52.432;16.914;2023-05-11T00:09:59;100627.75;;;14.08;48.64
31911;BME280;18457;52.432;16.914;2023-05-11T00:12:31;100617.70;;;14.09;48.25
31911;BME280;18457;52.432;16.914;2023-05-11T00:15:03;100623.98;;;14.01;48.35
31911;BME280;18457;52.432;16.914;2023-05-11T00:17:34;100618.70;;;13.96;48.13
31911;BME280;18457;52.432;16.914;2023-05-11T00:20:08;100620.60;;;13.94;48.16
31911;BME280;18457;52.432;16.914;2023-05-11T00:22:40;100619.77;;;13.86;48.44
31911;BME280;18457;52.432;16.914;2023-05-11T00:25:14;100615.94;;;13.82;48.57
31911;BME280;18457;52.432;16.914;2023-05-11T00:27:46;100615.89;;;13.88;48.12
31911;BME280;18457;52.432;16.914;2023-05-11T00:30:18;100615.09;;;13.90;48.21
31911;BME280;18457;52.432;16.914;2023-05-11T00:32:51;100614.77;;;13.89;47.94
31911;BME280;18457;52.432;16.914;2023-05-11T00:35:23;100617.39;;;13.82;47.79
31911;BME280;18457;52.432;16.914;2023-05-11T00:37:56;100618.04;;;13.84;47.71
31911;BME280;18457;52.432;16.914;2023-05-11T00:40:28;100619.23;;;13.81;47.65
31911;BME280;18457;52.432;16.914;2023-05-11T00:43:01;100622.06;;;13.78;47.69
31911;BME280;18457;52.432;16.914;2023-05-11T00:45:35;100615.73;;;13.77;47.54
31911;BME280;18457;52.432;16.914;2023-05-11T00:48:08;100614.05;;;13.73;47.73
31911;BME280;18457;52.432;16.914;2023-05-11T00:50:40;100617.14;;;13.73;47.45
31911;BME280;18457;52.432;16.914;2023-05-11T00:53:12;100616.61;;;13.72;47.39
31911;BME280;18457;52.432;16.914;2023-05-11T00:55:44;100619.29;;;13.74;47.47
31911;BME280;18457;52.432;16.914;2023-05-11T00:58:16;100617.12;;;13.68;47.57
31911;BME280;18457;52.432;16.914;2023-05-11T01:00:48;100617.43;;;13.59;47.60
31911;BME280;18457;52.432;16.914;2023-05-11T01:03:20;100614.85;;;13.49;48.08
31911;BME280;18457;52.432;16.914;2023-05-11T01:05:56;100615.16;;;13.51;48.15
31911;BME280;18457;52.432;16.914;2023-05-11T01:08:38;100614.16;;;13.53;47.84
31911;BME280;18457;52.432;16.914;2023-05-11T01:11:16;100615.17;;;13.50;47.94
31911;BME280;18457;52.432;16.914;2023-05-11T01:13:54;100613.48;;;13.47;47.90
31911;BME280;18457;52.432;16.914;2023-05-11T01:16:28;100613.58;;;13.49;47.90
31911;BME280;18457;52.432;16.914;2023-05-11T01:19:07;100611.78;;;13.43;48.14
31911;BME280;18457;52.432;16.914;2023-05-11T01:21:42;100609.17;;;13.45;47.87
31911;BME280;18457;52.432;16.914;2023-05-11T01:24:27;100610.45;;;13.39;48.22
31911;BME280;18457;52.432;16.914;2023-05-11T01:27:23;100610.84;;;13.44;48.01
31911;BME280;18457;52.432;16.914;2023-05-11T01:30:25;100611.95;;;13.43;47.96
31911;BME280;18457;52.432;16.914;2023-05-11T01:33:01;100611.48;;;13.42;48.26
31911;BME280;18457;52.432;16.914;2023-05-11T01:35:36;100610.79;;;13.40;47.89
31911;BME280;18457;52.432;16.914;2023-05-11T01:38:12;100613.27;;;13.42;47.69
31911;BME280;18457;52.432;16.914;2023-05-11T01:40:48;100612.36;;;13.42;47.85
31911;BME280;18457;52.432;16.914;2023-05-11T01:43:24;100608.90;;;13.37;47.80
31911;BME280;18457;52.432;16.914;2023-05-11T01:46:00;100612.82;;;13.34;47.72
31911;BME280;18457;52.432;16.914;2023-05-11T01:48:37;100617.91;;;13.34;47.70
31911;BME280;18457;52.432;16.914;2023-05-11T01:51:09;100617.16;;;13.28;47.71
31911;BME280;18457;52.432;16.914;2023-05-11T01:53:42;100618.89;;;13.31;47.98
31911;BME280;18457;52.432;16.914;2023-05-11T01:56:18;100618.28;;;13.28;47.92
31911;BME280;18457;52.432;16.914;2023-05-11T01:58:51;100621.08;;;13.25;48.18
31911;BME280;18457;52.432;16.914;2023-05-11T02:01:25;100620.42;;;13.23;47.94
31911;BME280;18457;52.432;16.914;2023-05-11T02:03:59;100621.44;;;13.20;48.19
31911;BME280;18457;52.432;16.914;2023-05-11T02:06:35;100621.41;;;13.21;48.14
31911;BME280;18457;52.432;16.914;2023-05-11T02:09:10;100622.98;;;13.10;48.47
31911;BME280;18457;52.432;16.914;2023-05-11T02:11:44;100620.70;;;13.14;48.25
31911;BME280;18457;52.432;16.914;2023-05-11T02:14:23;100621.25;;;13.14;48.26
31911;BME280;18457;52.432;16.914;2023-05-11T02:16:56;100620.75;;;13.12;48.27
31911;BME280;18457;52.432;16.914;2023-05-11T02:19:29;100623.66;;;13.06;48.40
31911;BME280;18457;52.432;16.914;2023-05-11T02:22:03;100619.70;;;12.92;48.96
31911;BME280;18457;52.432;16.914;2023-05-11T02:24:37;100619.41;;;12.90;48.83
31911;BME280;18457;52.432;16.914;2023-05-11T02:27:10;100619.58;;;12.96;48.70
31911;BME280;18457;52.432;16.914;2023-05-11T02:29:42;100626.80;;;12.97;48.56
31911;BME280;18457;52.432;16.914;2023-05-11T02:32:17;100628.42;;;12.92;48.65
31911;BME280;18457;52.432;16.914;2023-05-11T02:34:59;100628.05;;;12.86;48.76
31911;BME280;18457;52.432;16.914;2023-05-11T02:37:33;100631.59;;;12.83;48.81
31911;BME280;18457;52.432;16.914;2023-05-11T02:40:16;100627.34;;;12.80;49.06
31911;BME280;18457;52.432;16.914;2023-05-11T02:42:56;100627.80;;;12.82;49.06
31911;BME280;18457;52.432;16.914;2023-05-11T02:45:31;100631.84;;;12.81;49.13
31911;BME280;18457;52.432;16.914;2023-05-11T02:48:08;100627.48;;;12.81;48.94
31911;BME280;18457;52.432;16.914;2023-05-11T02:50:42;100636.96;;;12.79;49.25
31911;BME280;18457;52.432;16.914;2023-05-11T02:53:14;100634.02;;;12.74;49.40
31911;BME280;18457;52.432;16.914;2023-05-11T02:55:47;100635.39;;;12.70;49.50
31911;BME280;18457;52.432;16.914;2023-05-11T02:58:21;100633.58;;;12.71;49.40
31911;BME280;18457;52.432;16.914;2023-05-11T03:01:00;100636.02;;;12.68;49.55
31911;BME280;18457;52.432;16.914;2023-05-11T03:03:33;100639.58;;;12.64;49.70
31911;BME280;18457;52.432;16.914;2023-05-11T03:06:06;100633.98;;;12.51;49.93
31911;BME280;18457;52.432;16.914;2023-05-11T03:08:38;100643.93;;;12.51;49.90
31911;BME280;18457;52.432;16.914;2023-05-11T03:11:11;100644.55;;;12.55;50.07
31911;BME280;18457;52.432;16.914;2023-05-11T03:13:44;100643.99;;;12.56;49.95
31911;BME280;18457;52.432;16.914;2023-05-11T03:16:17;100646.09;;;12.52;50.05
31911;BME280;18457;52.432;16.914;2023-05-11T03:18:52;100645.67;;;12.47;50.17
31911;BME280;18457;52.432;16.914;2023-05-11T03:21:26;100644.38;;;12.49;50.20
31911;BME280;18457;52.432;16.914;2023-05-11T03:23:59;100643.68;;;12.41;50.57
31911;BME280;18457;52.432;16.914;2023-05-11T03:26:34;100642.02;;;12.41;50.43
31911;BME280;18457;52.432;16.914;2023-05-11T03:29:08;100646.17;;;12.42;50.43
31911;BME280;18457;52.432;16.914;2023-05-11T03:31:41;100646.98;;;12.39;50.59
31911;BME280;18457;52.432;16.914;2023-05-11T03:34:12;100650.75;;;12.41;50.48
31911;BME280;18457;52.432;16.914;2023-05-11T03:36:45;100650.32;;;12.43;50.73
31911;BME280;18457;52.432;16.914;2023-05-11T03:39:18;100654.25;;;12.39;50.60
31911;BME280;18457;52.432;16.914;2023-05-11T03:41:52;100652.14;;;12.37;50.72
31911;BME280;18457;52.432;16.914;2023-05-11T03:44:26;100651.65;;;12.41;50.69
31911;BME280;18457;52.432;16.914;2023-05-11T03:47:00;100655.34;;;12.38;50.82
31911;BME280;18457;52.432;16.914;2023-05-11T03:49:36;100654.33;;;12.36;50.95
31911;BME280;18457;52.432;16.914;2023-05-11T03:52:09;100658.13;;;12.30;50.97
31911;BME280;18457;52.432;16.914;2023-05-11T03:54:40;100657.45;;;12.28;51.23
31911;BME280;18457;52.432;16.914;2023-05-11T03:57:13;100659.35;;;12.31;51.33
31911;BME280;18457;52.432;16.914;2023-05-11T03:59:46;100659.02;;;12.37;51.00
31911;BME280;18457;52.432;16.914;2023-05-11T04:02:18;100661.64;;;12.40;50.96
31911;BME280;18457;52.432;16.914;2023-05-11T04:04:53;100658.27;;;12.37;51.15
31911;BME280;18457;52.432;16.914;2023-05-11T04:07:25;100656.83;;;12.31;51.28
31911;BME280;18457;52.432;16.914;2023-05-11T04:09:57;100659.13;;;12.32;51.23
31911;BME280;18457;52.432;16.914;2023-05-11T04:12:29;100660.63;;;12.24;52.06
31911;BME280;18457;52.432;16.914;2023-05-11T04:15:01;100655.49;;;12.27;51.99
31911;BME280;18457;52.432;16.914;2023-05-11T04:17:34;100655.81;;;12.28;51.78
31911;BME280;18457;52.432;16.914;2023-05-11T04:20:08;100660.00;;;12.34;51.71
31911;BME280;18457;52.432;16.914;2023-05-11T04:22:39;100659.52;;;12.38;51.33
31911;BME280;18457;52.432;16.914;2023-05-11T04:25:11;100662.54;;;12.40;51.48
31911;BME280;18457;52.432;16.914;2023-05-11T04:27:44;100662.91;;;12.40;51.21
31911;BME280;18457;52.432;16.914;2023-05-11T04:30:16;100668.87;;;12.47;51.14
31911;BME280;18457;52.432;16.914;2023-05-11T04:32:50;100667.11;;;12.52;51.11
31911;BME280;18457;52.432;16.914;2023-05-11T04:35:22;100666.48;;;12.55;51.14
31911;BME280;18457;52.432;16.914;2023-05-11T04:37:55;100670.77;;;12.51;51.09
31911;BME280;18457;52.432;16.914;2023-05-11T04:40:27;100671.91;;;12.56;51.16
31911;BME280;18457;52.432;16.914;2023-05-11T04:42:59;100671.02;;;12.54;51.18
31911;BME280;18457;52.432;16.914;2023-05-11T04:45:31;100673.45;;;12.52;51.21
31911;BME280;18457;52.432;16.914;2023-05-11T04:48:03;100673.77;;;12.47;51.59
31911;BME280;18457;52.432;16.914;2023-05-11T04:50:37;100674.83;;;12.48;51.52
31911;BME280;18457;52.432;16.914;2023-05-11T04:53:11;100675.17;;;12.55;51.46
31911;BME280;18457;52.432;16.914;2023-05-11T04:55:43;100674.58;;;12.57;51.23
31911;BME280;18457;52.432;16.914;2023-05-11T04:58:16;100675.50;;;12.56;51.26
31911;BME280;18457;52.432;16.914;2023-05-11T05:00:48;100679.23;;;12.59;51.31
31911;BME280;18457;52.432;16.914;2023-05-11T05:03:22;100682.22;;;12.62;51.21
31911;BME280;18457;52.432;16.914;2023-05-11T05:05:54;100683.14;;;12.68;51.17
31911;BME280;18457;52.432;16.914;2023-05-11T05:08:26;100685.10;;;12.69;51.12
31911;BME280;18457;52.432;16.914;2023-05-11T05:10:57;100683.45;;;12.69;51.20
31911;BME280;18457;52.432;16.914;2023-05-11T05:13:29;100682.80;;;12.74;50.83
31911;BME280;18457;52.432;16.914;2023-05-11T05:16:01;100682.75;;;12.76;52.67
31911;BME280;18457;52.432;16.914;2023-05-11T05:18:33;100685.38;;;13.04;54.06
31911;BME280;18457;52.432;16.914;2023-05-11T05:21:05;100687.23;;;13.15;53.07
31911;BME280;18457;52.432;16.914;2023-05-11T05:23:37;100687.96;;;13.15;51.54
31911;BME280;18457;52.432;16.914;2023-05-11T05:26:09;100689.42;;;13.09;51.29
31911;BME280;18457;52.432;16.914;2023-05-11T05:28:42;100687.78;;;13.09;51.55
31911;BME280;18457;52.432;16.914;2023-05-11T05:31:14;100686.73;;;13.01;51.37
31911;BME280;18457;52.432;16.914;2023-05-11T05:33:47;100692.16;;;13.08;51.29
31911;BME280;18457;52.432;16.914;2023-05-11T05:36:20;100696.42;;;13.18;51.33
31911;BME280;18457;52.432;16.914;2023-05-11T05:38:52;100696.70;;;13.14;51.25
31911;BME280;18457;52.432;16.914;2023-05-11T05:41:25;100698.25;;;13.11;51.37
31911;BME280;18457;52.432;16.914;2023-05-11T05:43:57;100696.23;;;13.11;51.22
31911;BME280;18457;52.432;16.914;2023-05-11T05:46:29;100696.56;;;13.13;51.47
31911;BME280;18457;52.432;16.914;2023-05-11T05:49:02;100698.70;;;13.15;51.42
31911;BME280;18457;52.432;16.914;2023-05-11T05:51:34;100701.00;;;13.22;51.58
31911;BME280;18457;52.432;16.914;2023-05-11T05:54:06;100704.26;;;13.29;51.88
31911;BME280;18457;52.432;16.914;2023-05-11T05:56:38;100701.12;;;13.30;52.10
31911;BME280;18457;52.432;16.914;2023-05-11T05:59:10;100705.77;;;13.33;51.60
31911;BME280;18457;52.432;16.914;2023-05-11T06:01:44;100703.40;;;13.33;51.35
31911;BME280;18457;52.432;16.914;2023-05-11T06:04:17;100704.36;;;13.37;51.49
31911;BME280;18457;52.432;16.914;2023-05-11T06:06:49;100708.59;;;13.46;52.21
31911;BME280;18457;52.432;16.914;2023-05-11T06:09:25;100708.24;;;13.46;51.91
31911;BME280;18457;52.432;16.914;2023-05-11T06:11:57;100712.10;;;13.50;51.81
31911;BME280;18457;52.432;16.914;2023-05-11T06:14:29;100714.80;;;13.51;52.03
31911;BME280;18457;52.432;16.914;2023-05-11T06:17:01;100712.79;;;13.63;52.18
31911;BME280;18457;52.432;16.914;2023-05-11T06:19:33;100713.54;;;13.68;51.82
31911;BME280;18457;52.432;16.914;2023-05-11T06:22:05;100716.22;;;13.75;52.64
31911;BME280;18457;52.432;16.914;2023-05-11T06:24:37;100717.71;;;13.85;52.66
31911;BME280;18457;52.432;16.914;2023-05-11T06:27:10;100712.66;;;13.84;51.78
31911;BME280;18457;52.432;16.914;2023-05-11T06:29:42;100716.42;;;13.91;51.70
31911;BME280;18457;52.432;16.914;2023-05-11T06:32:15;100717.50;;;13.91;51.36
31911;BME280;18457;52.432;16.914;2023-05-11T06:34:48;100721.70;;;13.96;51.27
31911;BME280;18457;52.432;16.914;2023-05-11T06:37:20;100723.02;;;14.00;52.01
31911;BME280;18457;52.432;16.914;2023-05-11T06:39:53;100727.63;;;14.04;51.35
31911;BME280;18457;52.432;16.914;2023-05-11T06:42:25;100725.65;;;14.08;51.84
31911;BME280;18457;52.432;16.914;2023-05-11T06:45:09;100725.66;;;14.14;51.85
31911;BME280;18457;52.432;16.914;2023-05-11T06:47:44;100724.88;;;14.15;51.22
31911;BME280;18457;52.432;16.914;2023-05-11T06:50:16;100723.81;;;14.20;51.40
31911;BME280;18457;52.432;16.914;2023-05-11T06:52:51;100725.36;;;14.22;51.50
31911;BME280;18457;52.432;16.914;2023-05-11T06:55:24;100730.19;;;14.31;52.55
31911;BME280;18457;52.432;16.914;2023-05-11T06:57:57;100731.52;;;14.35;51.65
31911;BME280;18457;52.432;16.914;2023-05-11T07:00:29;100727.69;;;14.35;51.39
31911;BME280;18457;52.432;16.914;2023-05-11T07:03:01;100730.09;;;14.44;52.20
31911;BME280;18457;52.432;16.914;2023-05-11T07:05:34;100725.42;;;14.47;51.42
31911;BME280;18457;52.432;16.914;2023-05-11T07:08:06;100727.15;;;14.50;51.21
31911;BME280;18457;52.432;16.914;2023-05-11T07:10:38;100730.24;;;14.50;50.93
31911;BME280;18457;52.432;16.914;2023-05-11T07:13:11;100727.89;;;14.55;50.85
31911;BME280;18457;52.432;16.914;2023-05-11T07:15:43;100729.41;;;14.58;51.02
31911;BME280;18457;52.432;16.914;2023-05-11T07:18:15;100726.34;;;14.63;51.30
31911;BME280;18457;52.432;16.914;2023-05-11T07:20:52;100725.86;;;14.66;50.79
31911;BME280;18457;52.432;16.914;2023-05-11T07:23:35;100728.96;;;14.71;50.99
31911;BME280;18457;52.432;16.914;2023-05-11T07:26:07;100724.37;;;14.77;50.81
31911;BME280;18457;52.432;16.914;2023-05-11T07:28:39;100729.11;;;14.82;50.78
31911;BME280;18457;52.432;16.914;2023-05-11T07:31:11;100730.41;;;14.81;50.71
31911;BME280;18457;52.432;16.914;2023-05-11T07:33:43;100727.88;;;14.86;50.84
31911;BME280;18457;52.432;16.914;2023-05-11T07:36:15;100728.62;;;14.90;50.65
31911;BME280;18457;52.432;16.914;2023-05-11T07:38:46;100734.44;;;14.95;51.02
31911;BME280;18457;52.432;16.914;2023-05-11T07:41:19;100731.96;;;15.03;51.02
31911;BME280;18457;52.432;16.914;2023-05-11T07:43:52;100738.12;;;15.09;50.83
31911;BME280;18457;52.432;16.914;2023-05-11T07:46:24;100737.78;;;15.13;50.98
31911;BME280;18457;52.432;16.914;2023-05-11T07:48:56;100735.92;;;15.19;50.84
31911;BME280;18457;52.432;16.914;2023-05-11T07:51:45;100734.43;;;15.25;50.58
31911;BME280;18457;52.432;16.914;2023-05-11T07:54:16;100734.07;;;15.29;50.59
31911;BME280;18457;52.432;16.914;2023-05-11T07:56:51;100737.27;;;15.37;51.15
31911;BME280;18457;52.432;16.914;2023-05-11T07:59:23;100741.90;;;15.67;53.90
31911;BME280;18457;52.432;16.914;2023-05-11T08:01:55;100741.19;;;15.76;53.54
31911;BME280;18457;52.432;16.914;2023-05-11T08:04:28;100741.50;;;15.86;53.73
31911;BME280;18457;52.432;16.914;2023-05-11T08:07:00;100740.94;;;15.91;54.05
31911;BME280;18457;52.432;16.914;2023-05-11T08:09:32;100743.40;;;15.89;52.23
31911;BME280;18457;52.432;16.914;2023-05-11T08:12:04;100746.23;;;15.82;51.42
31911;BME280;18457;52.432;16.914;2023-05-11T08:14:36;100746.12;;;15.80;53.38
31911;BME280;18457;52.432;16.914;2023-05-11T08:17:08;100744.20;;;15.83;51.62
31911;BME280;18457;52.432;16.914;2023-05-11T08:19:40;100745.23;;;15.89;51.46
31911;BME280;18457;52.432;16.914;2023-05-11T08:22:12;100743.30;;;15.91;52.81
31911;BME280;18457;52.432;16.914;2023-05-11T08:24:44;100744.19;;;16.01;51.33
31911;BME280;18457;52.432;16.914;2023-05-11T08:27:16;100745.11;;;16.05;52.33
31911;BME280;18457;52.432;16.914;2023-05-11T08:29:49;100748.79;;;16.08;52.10
31911;BME280;18457;52.432;16.914;2023-05-11T08:32:21;100752.03;;;16.18;50.40
31911;BME280;18457;52.432;16.914;2023-05-11T08:34:53;100747.55;;;16.29;49.45
31911;BME280;18457;52.432;16.914;2023-05-11T08:37:26;100745.65;;;16.31;48.84
31911;BME280;18457;52.432;16.914;2023-05-11T08:39:57;100743.17;;;16.33;50.18
31911;BME280;18457;52.432;16.914;2023-05-11T08:42:31;100744.66;;;16.41;50.26
31911;BME280;18457;52.432;16.914;2023-05-11T08:45:05;100737.42;;;16.40;50.83
31911;BME280;18457;52.432;16.914;2023-05-11T08:47:37;100738.31;;;16.54;50.34
31911;BME280;18457;52.432;16.914;2023-05-11T08:50:09;100745.96;;;16.58;51.07
31911;BME280;18457;52.432;16.914;2023-05-11T08:52:42;100748.64;;;16.73;49.21
31911;BME280;18457;52.432;16.914;2023-05-11T08:55:13;100748.30;;;16.80;49.89
31911;BME280;18457;52.432;16.914;2023-05-11T08:57:44;100745.97;;;16.83;48.88
31911;BME280;18457;52.432;16.914;2023-05-11T09:00:18;100749.14;;;16.90;49.60
31911;BME280;18457;52.432;16.914;2023-05-11T09:02:53;100750.73;;;16.95;49.20
31911;BME280;18457;52.432;16.914;2023-05-11T09:05:26;100748.30;;;16.97;48.28
31911;BME280;18457;52.432;16.914;2023-05-11T09:08:00;100751.21;;;16.97;49.60
31911;BME280;18457;52.432;16.914;2023-05-11T09:10:36;100749.94;;;16.97;49.53
31911;BME280;18457;52.432;16.914;2023-05-11T09:13:08;100752.33;;;17.04;49.33
31911;BME280;18457;52.432;16.914;2023-05-11T09:15:40;100750.97;;;17.02;48.73
31911;BME280;18457;52.432;16.914;2023-05-11T09:18:11;100750.08;;;17.05;48.41
31911;BME280;18457;52.432;16.914;2023-05-11T09:20:44;100748.27;;;17.09;49.22
31911;BME280;18457;52.432;16.914;2023-05-11T09:23:17;100745.41;;;17.16;49.35
31911;BME280;18457;52.432;16.914;2023-05-11T09:25:50;100745.89;;;17.25;49.37
31911;BME280;18457;52.432;16.914;2023-05-11T09:28:26;100742.48;;;17.35;48.71
31911;BME280;18457;52.432;16.914;2023-05-11T09:31:03;100747.95;;;17.52;47.20
31911;BME280;18457;52.432;16.914;2023-05-11T09:33:35;100747.13;;;17.65;47.36
31911;BME280;18457;52.432;16.914;2023-05-11T09:36:14;100747.17;;;17.87;46.26
31911;BME280;18457;52.432;16.914;2023-05-11T09:38:53;100748.85;;;17.97;46.23
31911;BME280;18457;52.432;16.914;2023-05-11T09:41:27;100751.13;;;18.06;45.43
31911;BME280;18457;52.432;16.914;2023-05-11T09:44:11;100743.70;;;18.16;45.91
31911;BME280;18457;52.432;16.914;2023-05-11T09:46:45;100748.39;;;18.28;46.61
31911;BME280;18457;52.432;16.914;2023-05-11T09:49:17;100745.21;;;18.45;46.97
31911;BME280;18457;52.432;16.914;2023-05-11T09:52:01;100746.63;;;18.60;45.62
31911;BME280;18457;52.432;16.914;2023-05-11T09:54:41;100746.23;;;18.78;45.18
31911;BME280;18457;52.432;16.914;2023-05-11T09:57:27;100742.39;;;18.91;45.24
31911;BME280;18457;52.432;16.914;2023-05-11T10:00:00;100749.05;;;19.04;44.40
31911;BME280;18457;52.432;16.914;2023-05-11T10:02:42;100729.20;;;19.15;44.65
31911;BME280;18457;52.432;16.914;2023-05-11T10:05:14;100734.02;;;19.31;44.24
31911;BME280;18457;52.432;16.914;2023-05-11T10:07:56;100733.86;;;19.51;42.97
31911;BME280;18457;52.432;16.914;2023-05-11T10:10:30;100739.83;;;19.62;43.06
31911;BME280;18457;52.432;16.914;2023-05-11T10:13:03;100741.59;;;19.63;42.84
31911;BME280;18457;52.432;16.914;2023-05-11T10:15:36;100736.05;;;19.73;42.46
31911;BME280;18457;52.432;16.914;2023-05-11T10:18:08;100734.08;;;19.89;43.24
31911;BME280;18457;52.432;16.914;2023-05-11T10:20:40;100733.88;;;20.05;43.25
31911;BME280;18457;52.432;16.914;2023-05-11T10:23:12;100731.13;;;20.18;42.20
31911;BME280;18457;52.432;16.914;2023-05-11T10:25:45;100734.52;;;20.26;41.06
31911;BME280;18457;52.432;16.914;2023-05-11T10:28:17;100734.04;;;20.25;40.33
31911;BME280;18457;52.432;16.914;2023-05-11T10:30:51;100726.07;;;20.26;40.66
31911;BME280;18457;52.432;16.914;2023-05-11T10:33:24;100721.20;;;20.31;41.28
31911;BME280;18457;52.432;16.914;2023-05-11T10:35:56;100719.93;;;20.52;40.34
31911;BME280;18457;52.432;16.914;2023-05-11T10:38:27;100720.22;;;20.68;40.50
31911;BME280;18457;52.432;16.914;2023-05-11T10:41:05;100716.99;;;20.82;40.45
31911;BME280;18457;52.432;16.914;2023-05-11T10:43:59;100714.48;;;20.90;40.04
31911;BME280;18457;52.432;16.914;2023-05-11T10:46:49;100712.44;;;20.99;38.88
31911;BME280;18457;52.432;16.914;2023-05-11T10:49:47;100718.30;;;20.96;38.37
31911;BME280;18457;52.432;16.914;2023-05-11T10:52:38;100714.09;;;21.03;38.67
31911;BME280;18457;52.432;16.914;2023-05-11T10:55:19;100713.02;;;21.05;37.83
31911;BME280;18457;52.432;16.914;2023-05-11T10:58:07;100708.77;;;21.11;37.73
31911;BME280;18457;52.432;16.914;2023-05-11T11:03:56;100707.46;;;21.37;37.52
31911;BME280;18457;52.432;16.914;2023-05-11T11:06:29;100706.46;;;21.44;37.29
31911;BME280;18457;52.432;16.914;2023-05-11T11:09:04;100701.34;;;21.44;37.29
31911;BME280;18457;52.432;16.914;2023-05-11T11:11:40;100701.83;;;21.53;38.06
31911;BME280;18457;52.432;16.914;2023-05-11T11:14:16;100705.39;;;21.72;37.55
31911;BME280;18457;52.432;16.914;2023-05-11T11:19:52;100703.81;;;21.99;37.59
31911;BME280;18457;52.432;16.914;2023-05-11T11:22:42;100701.59;;;22.02;36.43
31911;BME280;18457;52.432;16.914;2023-05-11T11:28:23;100702.80;;;22.27;36.23
31911;BME280;18457;52.432;16.914;2023-05-11T11:33:48;100701.73;;;22.46;36.50
31911;BME280;18457;52.432;16.914;2023-05-11T11:39:22;100703.56;;;22.43;34.83
31911;BME280;18457;52.432;16.914;2023-05-11T11:42:01;100702.92;;;22.53;36.72
31911;BME280;18457;52.432;16.914;2023-05-11T11:44:34;100699.10;;;22.66;37.18
31911;BME280;18457;52.432;16.914;2023-05-11T11:47:13;100695.67;;;22.72;35.89
31911;BME280;18457;52.432;16.914;2023-05-11T11:49:47;100697.98;;;22.73;36.94
31911;BME280;18457;52.432;16.914;2023-05-11T11:55:43;100697.34;;;22.95;34.69
31911;BME280;18457;52.432;16.914;2023-05-11T12:01:19;100690.77;;;23.07;34.83
31911;BME280;18457;52.432;16.914;2023-05-11T12:04:12;100697.11;;;23.19;35.67
31911;BME280;18457;52.432;16.914;2023-05-11T12:06:56;100690.71;;;23.06;35.39
31911;BME280;18457;52.432;16.914;2023-05-11T12:09:28;100681.81;;;23.04;35.02
31911;BME280;18457;52.432;16.914;2023-05-11T12:12:00;100690.33;;;23.19;35.03
31911;BME280;18457;52.432;16.914;2023-05-11T12:14:33;100696.10;;;23.15;33.59
31911;BME280;18457;52.432;16.914;2023-05-11T12:17:09;100696.23;;;23.06;32.82
31911;BME280;18457;52.432;16.914;2023-05-11T12:20:59;100695.85;;;23.11;32.92
31911;BME280;18457;52.432;16.914;2023-05-11T12:23:31;100695.69;;;23.13;33.28
31911;BME280;18457;52.432;16.914;2023-05-11T12:26:03;100688.42;;;23.19;33.34
31911;BME280;18457;52.432;16.914;2023-05-11T12:28:34;100690.95;;;23.12;33.59
31911;BME280;18457;52.432;16.914;2023-05-11T12:31:09;100675.79;;;22.93;33.21
31911;BME280;18457;52.432;16.914;2023-05-11T12:33:46;100685.96;;;23.00;33.52
31911;BME280;18457;52.432;16.914;2023-05-11T12:36:18;100687.12;;;23.12;33.85
31911;BME280;18457;52.432;16.914;2023-05-11T12:38:50;100687.29;;;23.27;34.16
31911;BME280;18457;52.432;16.914;2023-05-11T12:41:23;100684.39;;;23.27;33.55
31911;BME280;18457;52.432;16.914;2023-05-11T12:43:55;100682.33;;;23.27;33.58
31911;BME280;18457;52.432;16.914;2023-05-11T12:46:27;100680.92;;;23.21;33.60
31911;BME280;18457;52.432;16.914;2023-05-11T12:49:00;100684.31;;;23.25;33.37
31911;BME280;18457;52.432;16.914;2023-05-11T12:51:46;100678.64;;;23.22;33.26
31911;BME280;18457;52.432;16.914;2023-05-11T12:54:30;100675.91;;;23.24;32.92
31911;BME280;18457;52.432;16.914;2023-05-11T12:57:03;100673.60;;;23.25;32.95
31911;BME280;18457;52.432;16.914;2023-05-11T12:59:37;100668.09;;;23.33;33.24
31911;BME280;18457;52.432;16.914;2023-05-11T13:02:11;100669.71;;;23.41;33.03
31911;BME280;18457;52.432;16.914;2023-05-11T13:04:46;100677.45;;;23.36;32.41
31911;BME280;18457;52.432;16.914;2023-05-11T13:07:25;100674.48;;;23.34;32.04
31911;BME280;18457;52.432;16.914;2023-05-11T13:09:59;100670.05;;;23.42;32.31
31911;BME280;18457;52.432;16.914;2023-05-11T13:12:31;100667.16;;;23.49;32.20
31911;BME280;18457;52.432;16.914;2023-05-11T13:15:09;100667.46;;;23.52;32.31
31911;BME280;18457;52.432;16.914;2023-05-11T13:17:43;100661.30;;;23.56;32.05
31911;BME280;18457;52.432;16.914;2023-05-11T13:20:19;100659.84;;;23.55;31.80
31911;BME280;18457;52.432;16.914;2023-05-11T13:23:01;100657.94;;;23.64;32.00
31911;BME280;18457;52.432;16.914;2023-05-11T13:25:34;100654.90;;;23.47;31.95
31911;BME280;18457;52.432;16.914;2023-05-11T13:28:22;100649.85;;;23.12;32.40
31911;BME280;18457;52.432;16.914;2023-05-11T13:31:00;100649.02;;;22.99;32.77
31911;BME280;18457;52.432;16.914;2023-05-11T13:33:32;100649.19;;;23.21;32.74
31911;BME280;18457;52.432;16.914;2023-05-11T13:36:05;100648.43;;;23.50;32.71
31911;BME280;18457;52.432;16.914;2023-05-11T13:38:38;100647.44;;;23.68;32.33
31911;BME280;18457;52.432;16.914;2023-05-11T13:41:10;100642.27;;;23.85;32.10